createdAt,value
2019-05-02T00:01:45.421Z,31.80
2019-05-02T00:04:20.102Z,28.83
2019-05-02T00:07:09.530Z,30.43
2019-05-02T00:09:47.287Z,30.50
2019-05-02T00:12:15.925Z,34.27
2019-05-02T00:14:47.788Z,27.70
2019-05-02T00:17:20.455Z,26.53
2019-05-02T00:19:51.354Z,31.43
2019-05-02T00:22:24.966Z,30.77
2019-05-02T00:24:54.798Z,28.60
2019-05-02T00:27:24.632Z,27.50
2019-05-02T00:29:58.779Z,25.40
2019-05-02T00:32:26.920Z,33.13
2019-05-02T00:34:57.047Z,31.83
2019-05-02T00:37:26.889Z,27.03
2019-05-02T00:39:59.063Z,30.53
2019-05-02T00:42:28.948Z,27.17
2019-05-02T00:44:58.765Z,30.50
2019-05-02T00:47:36.253Z,28.10
2019-05-02T00:50:11.406Z,29.40
2019-05-02T00:52:44.610Z,29.80
2019-05-02T00:55:15.547Z,29.17
2019-05-02T00:57:55.662Z,25.83
2019-05-02T01:00:23.271Z,25.57
2019-05-02T01:02:57.390Z,25.33
2019-05-02T01:05:27.747Z,24.53
2019-05-02T01:08:01.057Z,25.57
2019-05-02T01:10:33.818Z,24.87
2019-05-02T01:13:04.226Z,21.57
2019-05-02T01:15:38.971Z,23.37
2019-05-02T01:18:16.186Z,23.63
2019-05-02T01:20:58.179Z,21.77
2019-05-02T01:23:29.548Z,24.80
2019-05-02T01:26:00.389Z,21.17
2019-05-02T01:28:31.878Z,22.70
2019-05-02T01:31:07.504Z,20.73
2019-05-02T01:33:47.315Z,23.63
2019-05-02T01:36:25.058Z,21.33
2019-05-02T01:38:55.878Z,24.80
2019-05-02T01:41:29.180Z,21.13
2019-05-02T01:44:00.160Z,25.03
2019-05-02T01:46:30.222Z,25.67
2019-05-02T01:49:01.630Z,22.27
2019-05-02T01:51:36.636Z,24.20
2019-05-02T01:54:10.201Z,21.70
2019-05-02T01:56:40.504Z,20.53
2019-05-02T01:59:14.087Z,19.60
2019-05-02T02:01:45.553Z,20.30
2019-05-02T02:04:21.027Z,18.17
2019-05-02T02:06:53.735Z,21.23
2019-05-02T02:09:30.115Z,19.67
2019-05-02T02:12:05.061Z,21.80
2019-05-02T02:14:34.529Z,18.23
2019-05-02T02:17:10.229Z,18.77
2019-05-02T02:19:43.567Z,19.67
2019-05-02T02:22:19.544Z,20.93
2019-05-02T02:24:55.949Z,17.93
2019-05-02T02:27:25.706Z,16.03
2019-05-02T02:29:58.407Z,14.10
2019-05-02T02:32:29.013Z,16.50
2019-05-02T02:35:03.713Z,14.70
2019-05-02T02:37:31.225Z,20.63
2019-05-02T02:40:01.700Z,15.73
2019-05-02T02:42:34.203Z,13.13
2019-05-02T02:45:12.877Z,15.23
2019-05-02T02:47:39.324Z,15.30
2019-05-02T02:50:09.368Z,15.73
2019-05-02T02:52:46.849Z,14.03
2019-05-02T02:55:21.930Z,14.67
2019-05-02T02:58:04.718Z,13.47
2019-05-02T03:00:32.668Z,17.37
2019-05-02T03:03:03.993Z,15.70
2019-05-02T03:05:33.825Z,14.40
2019-05-02T03:08:07.244Z,14.60
2019-05-02T03:10:45.050Z,12.73
2019-05-02T03:13:25.908Z,13.87
2019-05-02T03:16:14.151Z,12.87
2019-05-02T03:18:44.576Z,12.07
2019-05-02T03:21:20.846Z,14.20
2019-05-02T03:24:02.264Z,11.93
2019-05-02T03:26:29.377Z,16.73
2019-05-02T03:29:03.358Z,14.93
2019-05-02T03:31:35.044Z,13.17
2019-05-02T03:34:05.440Z,18.10
2019-05-02T03:36:37.235Z,13.53
2019-05-02T03:39:17.400Z,16.83
2019-05-02T03:41:47.484Z,12.40
2019-05-02T03:44:26.101Z,14.70
2019-05-02T03:46:54.159Z,12.60
2019-05-02T03:49:22.776Z,13.40
2019-05-02T03:52:03.128Z,13.27
2019-05-02T03:54:28.717Z,15.80
2019-05-02T03:57:08.595Z,12.93
2019-05-02T03:59:41.885Z,14.60
2019-05-02T04:02:14.054Z,12.27
2019-05-02T04:04:54.482Z,13.03
2019-05-02T04:07:21.415Z,12.83
2019-05-02T04:09:51.870Z,12.77
2019-05-02T04:12:22.045Z,17.47
2019-05-02T04:14:55.985Z,11.00
2019-05-02T04:17:29.075Z,14.53
2019-05-02T04:20:09.251Z,15.23
2019-05-02T04:22:48.891Z,15.83
2019-05-02T04:25:36.029Z,15.97
2019-05-02T04:28:11.928Z,14.47
2019-05-02T04:37:48.705Z,9.73
2019-05-02T04:43:33.077Z,10.73
2019-05-02T04:49:12.510Z,10.83
2019-05-02T04:54:38.236Z,10.87
2019-05-02T04:57:11.763Z,10.83
2019-05-02T04:59:50.015Z,8.47
2019-05-02T05:02:29.721Z,10.50
2019-05-02T05:04:55.548Z,8.17
2019-05-02T05:07:25.531Z,9.30
2019-05-02T05:10:03.030Z,7.70
2019-05-02T05:12:38.038Z,11.97
2019-05-02T05:15:07.919Z,9.60
2019-05-02T05:17:43.617Z,7.67
2019-05-02T05:20:18.309Z,7.27
2019-05-02T05:22:49.723Z,7.90
2019-05-02T05:25:34.454Z,9.37
2019-05-02T05:28:09.020Z,9.83
2019-05-02T05:30:45.187Z,10.20
2019-05-02T05:33:18.278Z,9.60
2019-05-02T05:35:52.814Z,7.87
2019-05-02T05:38:32.712Z,10.33
2019-05-02T05:41:08.907Z,9.97
2019-05-02T05:43:51.826Z,11.37
2019-05-02T05:46:33.233Z,9.20
2019-05-02T05:49:00.469Z,10.60
2019-05-02T05:54:59.760Z,8.77
2019-05-02T06:03:43.850Z,8.57
2019-05-02T06:12:12.750Z,9.33
2019-05-02T06:14:56.414Z,8.57
2019-05-02T06:26:54.197Z,7.77
2019-05-02T06:29:33.475Z,10.50
2019-05-02T06:37:45.334Z,7.70
2019-05-02T06:40:20.197Z,10.20
2019-05-02T06:43:09.902Z,9.33
2019-05-02T06:45:42.467Z,8.13
2019-05-02T06:54:00.925Z,9.27
2019-05-02T06:56:30.721Z,9.47
2019-05-02T06:59:03.388Z,9.03
2019-05-02T07:01:33.459Z,12.50
2019-05-02T07:04:07.414Z,8.73
2019-05-02T07:06:55.998Z,12.00
2019-05-02T07:09:08.858Z,13.07
2019-05-02T07:11:40.838Z,9.47
2019-05-02T07:14:13.446Z,13.53
2019-05-02T07:16:44.816Z,10.37
2019-05-02T07:19:32.517Z,12.10
2019-05-02T07:22:04.377Z,10.93
2019-05-02T07:24:33.773Z,11.13
2019-05-02T07:27:06.265Z,8.57
2019-05-02T07:29:36.073Z,10.40
2019-05-02T07:32:06.419Z,12.17
2019-05-02T07:34:44.210Z,11.90
2019-05-02T07:37:12.588Z,11.77
2019-05-02T07:39:43.704Z,6.93
2019-05-02T07:42:14.165Z,8.10
2019-05-02T07:44:45.627Z,10.53
2019-05-02T07:47:15.424Z,9.50
2019-05-02T07:49:45.248Z,8.57
2019-05-02T07:52:15.049Z,8.37
2019-05-02T07:54:44.907Z,8.13
2019-05-02T07:57:14.711Z,8.47
2019-05-02T07:59:44.522Z,7.53
2019-05-02T08:02:15.123Z,6.20
2019-05-02T08:04:45.218Z,7.13
2019-05-02T08:07:21.210Z,9.13
2019-05-02T08:09:52.692Z,7.27
2019-05-02T08:12:22.593Z,9.00
2019-05-02T08:14:52.397Z,6.83
2019-05-02T08:17:22.212Z,8.73
2019-05-02T08:19:53.339Z,9.83
2019-05-02T08:22:23.126Z,6.60
2019-05-02T08:24:52.963Z,6.67
2019-05-02T08:27:24.330Z,8.97
2019-05-02T08:29:54.204Z,6.87
2019-05-02T08:32:23.994Z,5.50
2019-05-02T08:34:53.808Z,5.57
2019-05-02T08:37:23.660Z,8.80
2019-05-02T08:39:53.459Z,8.60
2019-05-02T08:42:27.618Z,6.60
2019-05-02T08:44:56.414Z,9.23
2019-05-02T08:47:30.489Z,9.80
2019-05-02T08:50:00.636Z,6.77
2019-05-02T08:52:31.417Z,7.40
2019-05-02T08:55:04.387Z,7.30
2019-05-02T08:57:34.565Z,7.17
2019-05-02T09:00:06.200Z,5.33
2019-05-02T09:02:41.700Z,8.13
2019-05-02T09:05:07.846Z,7.37
2019-05-02T09:07:39.364Z,8.63
2019-05-02T09:10:09.418Z,6.30
2019-05-02T09:12:43.742Z,5.80
2019-05-02T09:15:11.886Z,5.20
2019-05-02T09:17:46.490Z,5.67
2019-05-02T09:20:16.606Z,3.63
2019-05-02T09:22:51.487Z,5.07
2019-05-02T09:25:18.232Z,5.50
2019-05-02T09:27:48.098Z,3.90
2019-05-02T09:30:22.847Z,4.23
2019-05-02T09:32:52.163Z,5.33
2019-05-02T09:35:25.394Z,5.87
2019-05-02T09:38:08.426Z,4.70
2019-05-02T09:43:39.178Z,5.87
2019-05-02T09:46:32.506Z,5.03
2019-05-02T09:52:03.346Z,3.93
2019-05-02T09:54:46.454Z,3.27
2019-05-02T09:57:16.178Z,5.67
2019-05-02T09:59:50.502Z,3.93
2019-05-02T10:02:22.221Z,4.47
2019-05-02T10:04:52.403Z,4.37
2019-05-02T10:13:25.370Z,4.13
2019-05-02T10:43:59.334Z,5.17
2019-05-02T10:55:26.998Z,6.77
2019-05-02T11:42:12.470Z,6.40
2019-05-02T11:44:52.429Z,5.27
2019-05-02T12:32:54.432Z,6.73
2019-05-02T13:07:18.020Z,4.37
2019-05-02T13:19:36.822Z,4.43
2019-05-02T13:52:28.383Z,5.00
2019-05-02T13:55:20.325Z,5.50
2019-05-02T13:57:56.426Z,3.97
2019-05-02T14:00:36.097Z,7.57
2019-05-02T14:13:31.571Z,3.90
2019-05-02T14:16:06.939Z,6.37
2019-05-02T14:19:12.437Z,4.17
2019-05-02T14:21:54.228Z,3.73
2019-05-02T15:50:00.017Z,3.23
2019-05-02T15:52:43.819Z,2.60
2019-05-02T15:58:27.992Z,3.77
2019-05-02T16:07:11.958Z,4.17
2019-05-02T16:10:21.685Z,4.30
2019-05-02T16:21:52.257Z,3.27
2019-05-02T16:24:34.955Z,3.00
2019-05-02T16:27:08.798Z,3.60
2019-05-02T16:29:45.973Z,4.67
2019-05-02T16:32:31.022Z,4.07
2019-05-02T16:35:37.508Z,6.30
2019-05-02T16:38:34.794Z,5.43
2019-05-02T16:41:12.039Z,4.53
2019-05-02T16:46:54.334Z,2.17
2019-05-02T16:49:35.839Z,4.23
2019-05-02T16:52:24.602Z,4.67
2019-05-02T16:55:04.972Z,3.43
2019-05-02T16:57:42.424Z,3.47
2019-05-02T17:00:23.186Z,3.00
2019-05-02T17:02:54.672Z,2.80
2019-05-02T17:05:39.327Z,4.47
2019-05-02T17:08:37.760Z,3.87
2019-05-02T17:11:27.707Z,3.67
2019-05-02T17:14:12.104Z,4.73
2019-05-02T17:17:07.821Z,5.83
2019-05-02T17:28:49.545Z,4.00
2019-05-02T17:31:39.577Z,4.90
2019-05-02T17:34:14.944Z,4.97
2019-05-02T17:36:54.318Z,5.33
2019-05-02T17:39:46.115Z,3.87
2019-05-02T17:42:33.494Z,7.63
2019-05-02T17:48:19.865Z,4.73
2019-05-02T17:54:31.700Z,4.80
2019-05-02T17:57:18.720Z,3.00
2019-05-02T18:00:02.775Z,3.20
2019-05-02T18:05:39.249Z,6.10
2019-05-02T18:08:26.764Z,6.20
2019-05-02T18:11:20.064Z,4.33
2019-05-02T18:14:19.655Z,4.67
2019-05-02T18:16:51.022Z,4.90
2019-05-02T18:19:35.081Z,4.40
2019-05-02T18:25:31.184Z,5.87
2019-05-02T18:28:21.575Z,5.80
2019-05-02T18:30:57.043Z,5.30
2019-05-02T18:33:47.051Z,7.20
2019-05-02T18:36:23.708Z,7.03
2019-05-02T18:39:00.473Z,6.50
2019-05-02T18:41:42.703Z,5.17
2019-05-02T18:44:22.593Z,7.83
2019-05-02T18:47:06.293Z,6.23
2019-05-02T18:49:42.663Z,5.33
2019-05-02T18:52:23.752Z,5.03
2019-05-02T18:54:56.319Z,5.67
2019-05-02T18:57:35.459Z,5.47
2019-05-02T19:00:16.969Z,6.73
2019-05-02T19:02:56.426Z,9.50
2019-05-02T19:05:34.869Z,4.80
2019-05-02T19:08:13.183Z,7.40
2019-05-02T19:11:01.349Z,6.90
2019-05-02T19:13:25.073Z,4.97
2019-05-02T19:16:12.931Z,7.30
2019-05-02T19:18:54.431Z,5.80
2019-05-02T19:21:31.036Z,6.57
2019-05-02T19:24:03.959Z,6.80
2019-05-02T19:26:49.030Z,9.20
2019-05-02T19:29:21.448Z,8.63
2019-05-02T19:32:06.437Z,9.50
2019-05-02T19:34:50.081Z,7.73
2019-05-02T19:37:24.649Z,7.33
2019-05-02T19:40:01.147Z,6.53
2019-05-02T19:42:46.747Z,9.33
2019-05-02T19:45:33.711Z,10.17
2019-05-02T19:48:18.645Z,8.10
2019-05-02T19:53:51.692Z,6.83
2019-05-02T19:56:47.302Z,9.23
2019-05-02T20:02:07.484Z,6.70
2019-05-02T20:04:43.993Z,8.67
2019-05-02T20:07:27.403Z,7.87
2019-05-02T20:10:08.741Z,9.00
2019-05-02T20:12:52.824Z,6.37
2019-05-02T20:15:26.964Z,10.23
2019-05-02T20:18:04.960Z,6.70
2019-05-02T20:24:09.106Z,6.47
2019-05-02T20:26:54.517Z,7.20
2019-05-02T20:29:23.162Z,7.13
2019-05-02T20:32:04.869Z,10.27
2019-05-02T20:34:42.604Z,7.03
2019-05-02T20:37:22.242Z,5.93
2019-05-02T20:39:58.763Z,6.57
2019-05-02T20:45:57.922Z,5.27
2019-05-02T20:48:17.444Z,6.10
2019-05-02T20:53:52.618Z,6.27
2019-05-02T20:56:32.039Z,5.70
2019-05-02T20:59:17.597Z,5.13
2019-05-02T21:01:54.834Z,7.40
2019-05-02T21:04:31.729Z,7.97
2019-05-02T21:07:18.721Z,8.07
2019-05-02T21:09:54.953Z,8.37
2019-05-02T21:12:35.184Z,8.50
2019-05-02T21:15:26.412Z,5.83
2019-05-02T21:18:07.735Z,5.57
2019-05-02T21:20:42.706Z,6.07
2019-05-02T21:23:18.903Z,9.23
2019-05-02T21:26:06.212Z,6.17
2019-05-02T21:28:45.977Z,7.87
2019-05-02T21:31:36.391Z,9.13
2019-05-02T21:37:23.511Z,7.23
2019-05-02T21:39:54.953Z,8.53
2019-05-02T21:42:31.812Z,9.97
2019-05-02T21:45:13.023Z,8.17
2019-05-02T21:47:44.535Z,6.43
2019-05-02T21:50:33.934Z,9.97
2019-05-02T21:53:08.390Z,7.30
2019-05-02T21:55:47.426Z,6.10
2019-05-02T21:58:21.587Z,5.53
2019-05-02T22:01:03.870Z,8.50
2019-05-02T22:03:37.208Z,7.40
2019-05-02T22:06:12.218Z,8.47
2019-05-02T22:08:53.831Z,10.97
2019-05-02T22:11:27.640Z,8.33
2019-05-02T22:14:03.640Z,5.20
2019-05-02T22:16:36.935Z,7.27
2019-05-02T22:19:15.733Z,6.93
2019-05-02T22:21:47.761Z,6.93
2019-05-02T22:24:24.164Z,5.57
2019-05-02T22:27:04.519Z,7.40
2019-05-02T22:29:32.434Z,5.43
2019-05-02T22:32:12.342Z,9.63
2019-05-02T22:34:45.777Z,8.37
2019-05-02T22:37:17.273Z,13.30
2019-05-02T22:40:07.798Z,9.60
2019-05-02T22:42:41.759Z,8.30
2019-05-02T22:45:14.992Z,10.57
2019-05-02T22:47:46.800Z,11.00
2019-05-02T22:50:22.804Z,7.30
2019-05-02T22:52:57.372Z,6.17
2019-05-02T22:55:32.038Z,8.67
2019-05-02T22:58:04.443Z,8.37
2019-05-02T23:00:37.986Z,8.53
2019-05-02T23:03:13.810Z,7.57
2019-05-02T23:05:49.693Z,9.83
2019-05-02T23:08:27.383Z,8.70
2019-05-02T23:13:46.082Z,8.77
2019-05-02T23:16:38.175Z,10.40
2019-05-02T23:19:14.883Z,6.03
2019-05-02T23:21:46.303Z,7.17
2019-05-02T23:24:39.264Z,7.67
2019-05-02T23:27:24.681Z,8.07
2019-05-02T23:30:15.727Z,5.07
2019-05-02T23:32:51.706Z,6.20
2019-05-02T23:35:28.646Z,4.37
2019-05-02T23:38:06.847Z,9.93
2019-05-02T23:40:42.105Z,5.57
2019-05-02T23:43:21.841Z,6.47
2019-05-02T23:45:56.277Z,4.30
2019-05-02T23:48:35.509Z,6.87
2019-05-02T23:51:17.717Z,9.00
2019-05-02T23:53:55.491Z,6.60
2019-05-02T23:56:27.888Z,7.47
2019-05-02T23:59:02.560Z,4.83
